sensor_id;sensor_type;location;lat;lon;timestamp;temperature;humidity
7254;DHT22;4060;49.186;9.226;2022-08-19T00:02:16;28.60;42.90
7254;DHT22;4060;49.186;9.226;2022-08-19T00:04:45;28.60;43.00
7254;DHT22;4060;49.186;9.226;2022-08-19T00:07:20;28.60;42.90
7254;DHT22;4060;49.186;9.226;2022-08-19T00:09:50;28.50;42.90
7254;DHT22;4060;49.186;9.226;2022-08-19T00:12:20;28.50;42.90
7254;DHT22;4060;49.186;9.226;2022-08-19T00:14:51;28.50;42.90
7254;DHT22;4060;49.186;9.226;2022-08-19T00:17:23;28.50;42.90
7254;DHT22;4060;49.186;9.226;2022-08-19T00:19:52;28.50;42.90
7254;DHT22;4060;49.186;9.226;2022-08-19T00:22:22;28.50;43.50
7254;DHT22;4060;49.186;9.226;2022-08-19T00:24:54;28.50;43.00
7254;DHT22;4060;49.186;9.226;2022-08-19T00:27:23;28.50;43.00
7254;DHT22;4060;49.186;9.226;2022-08-19T00:29:53;28.50;43.00
7254;DHT22;4060;49.186;9.226;2022-08-19T00:32:25;28.40;43.00
7254;DHT22;4060;49.186;9.226;2022-08-19T00:34:54;28.40;43.00
7254;DHT22;4060;49.186;9.226;2022-08-19T00:37:24;28.50;43.10
7254;DHT22;4060;49.186;9.226;2022-08-19T00:39:54;28.40;43.00
7254;DHT22;4060;49.186;9.226;2022-08-19T00:42:26;28.40;43.10
7254;DHT22;4060;49.186;9.226;2022-08-19T00:44:57;28.40;43.10
7254;DHT22;4060;49.186;9.226;2022-08-19T00:47:29;28.40;43.10
7254;DHT22;4060;49.186;9.226;2022-08-19T00:49:59;28.40;43.10
7254;DHT22;4060;49.186;9.226;2022-08-19T00:52:32;28.40;43.20
7254;DHT22;4060;49.186;9.226;2022-08-19T00:55:04;28.30;43.10
7254;DHT22;4060;49.186;9.226;2022-08-19T00:57:40;28.30;43.20
7254;DHT22;4060;49.186;9.226;2022-08-19T01:00:14;28.30;43.20
7254;DHT22;4060;49.186;9.226;2022-08-19T01:02:46;28.40;43.30
7254;DHT22;4060;49.186;9.226;2022-08-19T01:05:20;28.30;43.20
7254;DHT22;4060;49.186;9.226;2022-08-19T01:07:52;28.30;43.30
7254;DHT22;4060;49.186;9.226;2022-08-19T01:10:25;28.30;43.30
7254;DHT22;4060;49.186;9.226;2022-08-19T01:12:55;28.30;43.40
7254;DHT22;4060;49.186;9.226;2022-08-19T01:15:29;28.30;43.40
7254;DHT22;4060;49.186;9.226;2022-08-19T01:18:06;28.30;43.40
7254;DHT22;4060;49.186;9.226;2022-08-19T01:20:36;28.30;43.40
7254;DHT22;4060;49.186;9.226;2022-08-19T01:23:07;28.20;43.40
7254;DHT22;4060;49.186;9.226;2022-08-19T01:25:44;28.20;43.40
7254;DHT22;4060;49.186;9.226;2022-08-19T01:28:19;28.30;43.50
7254;DHT22;4060;49.186;9.226;2022-08-19T01:30:48;28.20;43.50
7254;DHT22;4060;49.186;9.226;2022-08-19T01:33:18;28.20;43.50
7254;DHT22;4060;49.186;9.226;2022-08-19T01:35:48;28.20;43.50
7254;DHT22;4060;49.186;9.226;2022-08-19T01:38:26;28.20;43.50
7254;DHT22;4060;49.186;9.226;2022-08-19T01:40:58;28.20;43.60
7254;DHT22;4060;49.186;9.226;2022-08-19T01:43:28;28.20;43.60
7254;DHT22;4060;49.186;9.226;2022-08-19T01:45:59;28.20;43.60
7254;DHT22;4060;49.186;9.226;2022-08-19T01:48:35;28.20;43.70
7254;DHT22;4060;49.186;9.226;2022-08-19T01:51:05;28.20;44.20
7254;DHT22;4060;49.186;9.226;2022-08-19T01:53:37;28.10;43.90
7254;DHT22;4060;49.186;9.226;2022-08-19T01:56:07;28.10;43.70
7254;DHT22;4060;49.186;9.226;2022-08-19T01:58:40;28.10;43.70
7254;DHT22;4060;49.186;9.226;2022-08-19T02:01:10;28.10;43.70
7254;DHT22;4060;49.186;9.226;2022-08-19T02:03:40;28.10;43.80
7254;DHT22;4060;49.186;9.226;2022-08-19T02:06:09;28.10;43.80
7254;DHT22;4060;49.186;9.226;2022-08-19T02:08:40;28.10;43.80
7254;DHT22;4060;49.186;9.226;2022-08-19T02:11:19;28.10;43.80
7254;DHT22;4060;49.186;9.226;2022-08-19T02:13:49;28.10;43.90
7254;DHT22;4060;49.186;9.226;2022-08-19T02:16:20;28.10;43.90
7254;DHT22;4060;49.186;9.226;2022-08-19T02:18:50;28.10;43.90
7254;DHT22;4060;49.186;9.226;2022-08-19T02:21:22;28.00;43.90
7254;DHT22;4060;49.186;9.226;2022-08-19T02:23:55;28.00;43.90
7254;DHT22;4060;49.186;9.226;2022-08-19T02:26:25;28.10;44.00
7254;DHT22;4060;49.186;9.226;2022-08-19T02:28:56;28.00;43.90
7254;DHT22;4060;49.186;9.226;2022-08-19T02:31:26;28.00;44.00
7254;DHT22;4060;49.186;9.226;2022-08-19T02:33:57;28.00;44.10
7254;DHT22;4060;49.186;9.226;2022-08-19T02:36:26;28.00;44.10
7254;DHT22;4060;49.186;9.226;2022-08-19T02:39:04;28.00;44.20
7254;DHT22;4060;49.186;9.226;2022-08-19T02:41:33;28.00;44.20
7254;DHT22;4060;49.186;9.226;2022-08-19T02:44:04;27.90;44.10
7254;DHT22;4060;49.186;9.226;2022-08-19T02:46:34;27.90;44.20
7254;DHT22;4060;49.186;9.226;2022-08-19T02:49:06;27.90;44.20
7254;DHT22;4060;49.186;9.226;2022-08-19T02:51:37;27.90;44.30
7254;DHT22;4060;49.186;9.226;2022-08-19T02:54:09;27.90;44.30
7254;DHT22;4060;49.186;9.226;2022-08-19T02:56:41;27.90;44.30
7254;DHT22;4060;49.186;9.226;2022-08-19T02:59:11;27.90;44.40
7254;DHT22;4060;49.186;9.226;2022-08-19T03:01:41;27.90;44.40
7254;DHT22;4060;49.186;9.226;2022-08-19T03:04:13;27.90;44.40
7254;DHT22;4060;49.186;9.226;2022-08-19T03:06:46;27.90;44.40
7254;DHT22;4060;49.186;9.226;2022-08-19T03:09:19;27.90;44.50
7254;DHT22;4060;49.186;9.226;2022-08-19T03:11:50;27.90;44.50
7254;DHT22;4060;49.186;9.226;2022-08-19T03:14:20;27.90;44.50
7254;DHT22;4060;49.186;9.226;2022-08-19T03:16:51;27.90;44.50
7254;DHT22;4060;49.186;9.226;2022-08-19T03:19:26;27.80;44.50
7254;DHT22;4060;49.186;9.226;2022-08-19T03:22:02;27.80;44.50
7254;DHT22;4060;49.186;9.226;2022-08-19T03:24:34;27.80;44.60
7254;DHT22;4060;49.186;9.226;2022-08-19T03:27:04;27.80;44.60
7254;DHT22;4060;49.186;9.226;2022-08-19T03:29:33;27.80;44.70
7254;DHT22;4060;49.186;9.226;2022-08-19T03:32:07;27.80;44.70
7254;DHT22;4060;49.186;9.226;2022-08-19T03:34:38;27.80;44.70
7254;DHT22;4060;49.186;9.226;2022-08-19T03:37:09;27.70;44.70
7254;DHT22;4060;49.186;9.226;2022-08-19T03:39:41;27.70;44.80
7254;DHT22;4060;49.186;9.226;2022-08-19T03:42:11;27.70;44.80
7254;DHT22;4060;49.186;9.226;2022-08-19T03:44:40;27.70;44.80
7254;DHT22;4060;49.186;9.226;2022-08-19T03:47:11;27.70;44.90
7254;DHT22;4060;49.186;9.226;2022-08-19T03:49:44;27.70;44.90
7254;DHT22;4060;49.186;9.226;2022-08-19T03:52:14;27.70;44.90
7254;DHT22;4060;49.186;9.226;2022-08-19T03:54:45;27.70;45.00
7254;DHT22;4060;49.186;9.226;2022-08-19T03:57:15;27.70;45.00
7254;DHT22;4060;49.186;9.226;2022-08-19T03:59:45;27.70;45.00
7254;DHT22;4060;49.186;9.226;2022-08-19T04:02:14;27.70;45.10
7254;DHT22;4060;49.186;9.226;2022-08-19T04:04:44;27.60;45.10
7254;DHT22;4060;49.186;9.226;2022-08-19T04:07:15;27.60;45.10
7254;DHT22;4060;49.186;9.226;2022-08-19T04:09:51;27.60;45.20
7254;DHT22;4060;49.186;9.226;2022-08-19T04:12:21;27.60;45.20
7254;DHT22;4060;49.186;9.226;2022-08-19T04:14:50;27.60;45.20
7254;DHT22;4060;49.186;9.226;2022-08-19T04:17:19;27.60;45.20
7254;DHT22;4060;49.186;9.226;2022-08-19T04:19:49;27.60;45.30
7254;DHT22;4060;49.186;9.226;2022-08-19T04:22:19;27.60;45.30
7254;DHT22;4060;49.186;9.226;2022-08-19T04:24:50;27.60;45.30
7254;DHT22;4060;49.186;9.226;2022-08-19T04:27:20;27.60;45.40
7254;DHT22;4060;49.186;9.226;2022-08-19T04:29:50;27.60;45.40
7254;DHT22;4060;49.186;9.226;2022-08-19T04:32:22;27.60;45.40
7254;DHT22;4060;49.186;9.226;2022-08-19T04:34:52;27.50;45.40
7254;DHT22;4060;49.186;9.226;2022-08-19T04:37:27;27.50;45.40
7254;DHT22;4060;49.186;9.226;2022-08-19T04:40:05;27.50;45.50
7254;DHT22;4060;49.186;9.226;2022-08-19T04:42:53;27.50;45.50
7254;DHT22;4060;49.186;9.226;2022-08-19T04:45:23;27.50;45.50
7254;DHT22;4060;49.186;9.226;2022-08-19T04:47:55;27.50;45.50
7254;DHT22;4060;49.186;9.226;2022-08-19T04:50:26;27.50;45.60
7254;DHT22;4060;49.186;9.226;2022-08-19T04:52:56;27.50;45.60
7254;DHT22;4060;49.186;9.226;2022-08-19T04:55:27;27.50;45.60
7254;DHT22;4060;49.186;9.226;2022-08-19T04:57:57;27.40;45.60
7254;DHT22;4060;49.186;9.226;2022-08-19T05:00:26;27.40;45.60
7254;DHT22;4060;49.186;9.226;2022-08-19T05:02:56;27.40;45.70
7254;DHT22;4060;49.186;9.226;2022-08-19T05:05:28;27.40;45.70
7254;DHT22;4060;49.186;9.226;2022-08-19T05:07:58;27.40;45.70
7254;DHT22;4060;49.186;9.226;2022-08-19T05:10:30;27.40;45.80
7254;DHT22;4060;49.186;9.226;2022-08-19T05:12:59;27.40;45.80
7254;DHT22;4060;49.186;9.226;2022-08-19T05:15:29;27.40;45.80
7254;DHT22;4060;49.186;9.226;2022-08-19T05:17:59;27.40;45.80
7254;DHT22;4060;49.186;9.226;2022-08-19T05:20:54;27.30;45.80
7254;DHT22;4060;49.186;9.226;2022-08-19T05:23:40;27.40;45.90
7254;DHT22;4060;49.186;9.226;2022-08-19T05:26:11;27.30;45.90
7254;DHT22;4060;49.186;9.226;2022-08-19T05:28:41;27.30;45.90
7254;DHT22;4060;49.186;9.226;2022-08-19T05:31:11;27.30;45.90
7254;DHT22;4060;49.186;9.226;2022-08-19T05:33:41;27.30;45.90
7254;DHT22;4060;49.186;9.226;2022-08-19T05:36:10;27.30;46.00
7254;DHT22;4060;49.186;9.226;2022-08-19T05:38:40;27.30;46.00
7254;DHT22;4060;49.186;9.226;2022-08-19T05:41:13;27.30;46.00
7254;DHT22;4060;49.186;9.226;2022-08-19T05:43:43;27.30;46.00
7254;DHT22;4060;49.186;9.226;2022-08-19T05:46:18;27.30;46.00
7254;DHT22;4060;49.186;9.226;2022-08-19T05:48:47;27.30;46.10
7254;DHT22;4060;49.186;9.226;2022-08-19T05:51:17;27.30;46.00
7254;DHT22;4060;49.186;9.226;2022-08-19T05:53:47;27.30;46.10
7254;DHT22;4060;49.186;9.226;2022-08-19T05:56:18;27.30;46.10
7254;DHT22;4060;49.186;9.226;2022-08-19T05:58:48;27.30;46.10
7254;DHT22;4060;49.186;9.226;2022-08-19T06:01:18;27.30;46.20
7254;DHT22;4060;49.186;9.226;2022-08-19T06:03:48;27.30;46.20
7254;DHT22;4060;49.186;9.226;2022-08-19T06:06:18;27.30;46.20
7254;DHT22;4060;49.186;9.226;2022-08-19T06:08:47;27.20;46.20
7254;DHT22;4060;49.186;9.226;2022-08-19T06:11:24;27.20;46.20
7254;DHT22;4060;49.186;9.226;2022-08-19T06:13:54;27.20;46.20
7254;DHT22;4060;49.186;9.226;2022-08-19T06:16:25;27.20;46.20
7254;DHT22;4060;49.186;9.226;2022-08-19T06:18:55;27.20;46.20
7254;DHT22;4060;49.186;9.226;2022-08-19T06:21:27;27.20;46.20
7254;DHT22;4060;49.186;9.226;2022-08-19T06:23:57;27.20;46.20
7254;DHT22;4060;49.186;9.226;2022-08-19T06:26:29;27.20;46.30
7254;DHT22;4060;49.186;9.226;2022-08-19T06:28:59;27.20;46.30
7254;DHT22;4060;49.186;9.226;2022-08-19T06:31:30;27.20;46.30
7254;DHT22;4060;49.186;9.226;2022-08-19T06:34:01;27.20;46.30
7254;DHT22;4060;49.186;9.226;2022-08-19T06:36:34;27.20;46.30
7254;DHT22;4060;49.186;9.226;2022-08-19T06:39:05;27.20;46.40
7254;DHT22;4060;49.186;9.226;2022-08-19T06:41:40;27.20;46.40
7254;DHT22;4060;49.186;9.226;2022-08-19T06:44:10;27.10;46.40
7254;DHT22;4060;49.186;9.226;2022-08-19T06:46:41;27.10;46.40
7254;DHT22;4060;49.186;9.226;2022-08-19T06:49:11;27.10;46.40
7254;DHT22;4060;49.186;9.226;2022-08-19T06:51:41;27.10;46.40
7254;DHT22;4060;49.186;9.226;2022-08-19T06:54:12;27.10;46.50
7254;DHT22;4060;49.186;9.226;2022-08-19T06:56:43;27.10;46.40
7254;DHT22;4060;49.186;9.226;2022-08-19T06:59:14;27.10;46.50
7254;DHT22;4060;49.186;9.226;2022-08-19T07:01:49;27.10;46.50
7254;DHT22;4060;49.186;9.226;2022-08-19T07:04:21;27.10;46.60
7254;DHT22;4060;49.186;9.226;2022-08-19T07:06:59;27.10;46.60
7254;DHT22;4060;49.186;9.226;2022-08-19T07:09:29;27.10;46.60
7254;DHT22;4060;49.186;9.226;2022-08-19T07:12:00;27.10;46.70
7254;DHT22;4060;49.186;9.226;2022-08-19T07:14:30;27.10;46.70
7254;DHT22;4060;49.186;9.226;2022-08-19T07:16:59;27.10;46.70
7254;DHT22;4060;49.186;9.226;2022-08-19T07:19:29;27.10;46.70
7254;DHT22;4060;49.186;9.226;2022-08-19T07:22:00;27.10;46.80
7254;DHT22;4060;49.186;9.226;2022-08-19T07:24:30;27.10;46.90
7254;DHT22;4060;49.186;9.226;2022-08-19T07:27:04;27.10;46.90
7254;DHT22;4060;49.186;9.226;2022-08-19T07:29:35;27.00;46.90
7254;DHT22;4060;49.186;9.226;2022-08-19T07:32:05;27.10;46.90
7254;DHT22;4060;49.186;9.226;2022-08-19T07:34:36;27.00;46.90
7254;DHT22;4060;49.186;9.226;2022-08-19T07:37:06;27.00;46.90
7254;DHT22;4060;49.186;9.226;2022-08-19T07:39:37;27.00;46.90
7254;DHT22;4060;49.186;9.226;2022-08-19T07:42:11;27.10;47.00
7254;DHT22;4060;49.186;9.226;2022-08-19T07:44:41;27.00;47.00
7254;DHT22;4060;49.186;9.226;2022-08-19T07:47:11;27.00;47.00
7254;DHT22;4060;49.186;9.226;2022-08-19T07:49:42;27.10;47.10
7254;DHT22;4060;49.186;9.226;2022-08-19T07:52:11;27.00;47.00
7254;DHT22;4060;49.186;9.226;2022-08-19T07:54:41;27.00;47.10
7254;DHT22;4060;49.186;9.226;2022-08-19T07:57:13;27.10;47.10
7254;DHT22;4060;49.186;9.226;2022-08-19T07:59:43;27.00;47.10
7254;DHT22;4060;49.186;9.226;2022-08-19T08:02:13;27.00;47.00
7254;DHT22;4060;49.186;9.226;2022-08-19T08:04:42;27.00;47.00
7254;DHT22;4060;49.186;9.226;2022-08-19T08:07:28;27.00;47.10
7254;DHT22;4060;49.186;9.226;2022-08-19T08:10:14;27.00;47.10
7254;DHT22;4060;49.186;9.226;2022-08-19T08:12:47;27.00;47.10
7254;DHT22;4060;49.186;9.226;2022-08-19T08:15:16;27.00;47.10
7254;DHT22;4060;49.186;9.226;2022-08-19T08:17:47;27.00;47.10
7254;DHT22;4060;49.186;9.226;2022-08-19T08:20:17;27.00;47.10
7254;DHT22;4060;49.186;9.226;2022-08-19T08:22:48;27.00;47.10
7254;DHT22;4060;49.186;9.226;2022-08-19T08:25:34;27.00;47.10
7254;DHT22;4060;49.186;9.226;2022-08-19T08:28:06;27.00;47.10
7254;DHT22;4060;49.186;9.226;2022-08-19T08:30:36;27.00;47.10
7254;DHT22;4060;49.186;9.226;2022-08-19T08:33:08;27.10;47.10
7254;DHT22;4060;49.186;9.226;2022-08-19T08:35:40;27.10;47.10
7254;DHT22;4060;49.186;9.226;2022-08-19T08:38:10;27.00;47.20
7254;DHT22;4060;49.186;9.226;2022-08-19T08:40:44;27.10;47.20
7254;DHT22;4060;49.186;9.226;2022-08-19T08:43:24;27.10;47.20
7254;DHT22;4060;49.186;9.226;2022-08-19T08:46:01;27.10;47.20
7254;DHT22;4060;49.186;9.226;2022-08-19T08:48:40;27.10;47.20
7254;DHT22;4060;49.186;9.226;2022-08-19T08:51:15;27.10;47.10
7254;DHT22;4060;49.186;9.226;2022-08-19T08:53:50;27.00;47.10
7254;DHT22;4060;49.186;9.226;2022-08-19T08:56:20;27.10;47.20
7254;DHT22;4060;49.186;9.226;2022-08-19T08:58:58;27.10;47.10
7254;DHT22;4060;49.186;9.226;2022-08-19T09:01:28;27.10;47.20
7254;DHT22;4060;49.186;9.226;2022-08-19T09:03:58;27.10;47.20
7254;DHT22;4060;49.186;9.226;2022-08-19T09:06:32;27.10;47.30
7254;DHT22;4060;49.186;9.226;2022-08-19T09:09:13;27.10;47.30
7254;DHT22;4060;49.186;9.226;2022-08-19T09:12:05;27.10;47.40
7254;DHT22;4060;49.186;9.226;2022-08-19T09:14:45;27.10;47.40
7254;DHT22;4060;49.186;9.226;2022-08-19T09:17:18;27.10;47.40
7254;DHT22;4060;49.186;9.226;2022-08-19T09:19:51;27.10;47.30
7254;DHT22;4060;49.186;9.226;2022-08-19T09:22:21;27.10;47.30
7254;DHT22;4060;49.186;9.226;2022-08-19T09:24:54;27.10;47.30
7254;DHT22;4060;49.186;9.226;2022-08-19T09:27:25;27.10;47.20
7254;DHT22;4060;49.186;9.226;2022-08-19T09:29:58;27.10;47.30
7254;DHT22;4060;49.186;9.226;2022-08-19T09:32:27;27.20;47.40
7254;DHT22;4060;49.186;9.226;2022-08-19T09:34:57;27.10;47.20
7254;DHT22;4060;49.186;9.226;2022-08-19T09:37:27;27.20;47.40
7254;DHT22;4060;49.186;9.226;2022-08-19T09:39:57;27.20;47.40
7254;DHT22;4060;49.186;9.226;2022-08-19T09:42:27;27.20;47.40
7254;DHT22;4060;49.186;9.226;2022-08-19T09:44:58;27.20;47.30
7254;DHT22;4060;49.186;9.226;2022-08-19T09:47:28;27.20;47.30
7254;DHT22;4060;49.186;9.226;2022-08-19T09:49:57;27.20;47.40
7254;DHT22;4060;49.186;9.226;2022-08-19T09:52:27;27.20;47.40
7254;DHT22;4060;49.186;9.226;2022-08-19T09:54:56;27.20;47.50
7254;DHT22;4060;49.186;9.226;2022-08-19T09:57:26;27.20;47.50
7254;DHT22;4060;49.186;9.226;2022-08-19T09:59:58;27.20;47.50
7254;DHT22;4060;49.186;9.226;2022-08-19T10:02:28;27.20;47.60
7254;DHT22;4060;49.186;9.226;2022-08-19T10:04:58;27.20;47.70
7254;DHT22;4060;49.186;9.226;2022-08-19T10:07:44;27.20;47.80
7254;DHT22;4060;49.186;9.226;2022-08-19T10:10:13;27.20;47.80
7254;DHT22;4060;49.186;9.226;2022-08-19T10:12:42;27.20;47.70
7254;DHT22;4060;49.186;9.226;2022-08-19T10:15:17;27.20;47.80
7254;DHT22;4060;49.186;9.226;2022-08-19T10:17:47;27.30;47.90
7254;DHT22;4060;49.186;9.226;2022-08-19T10:20:17;27.30;47.90
7254;DHT22;4060;49.186;9.226;2022-08-19T10:22:47;27.30;47.90
7254;DHT22;4060;49.186;9.226;2022-08-19T10:25:16;27.30;47.90
7254;DHT22;4060;49.186;9.226;2022-08-19T10:27:46;27.30;47.90
7254;DHT22;4060;49.186;9.226;2022-08-19T10:30:18;27.30;47.90
7254;DHT22;4060;49.186;9.226;2022-08-19T10:32:48;27.30;48.00
7254;DHT22;4060;49.186;9.226;2022-08-19T10:35:17;27.30;48.00
7254;DHT22;4060;49.186;9.226;2022-08-19T10:37:47;27.30;47.90
7254;DHT22;4060;49.186;9.226;2022-08-19T10:40:16;27.30;47.80
7254;DHT22;4060;49.186;9.226;2022-08-19T10:42:46;27.30;47.80
7254;DHT22;4060;49.186;9.226;2022-08-19T10:45:17;27.30;47.80
7254;DHT22;4060;49.186;9.226;2022-08-19T10:47:49;27.30;47.90
7254;DHT22;4060;49.186;9.226;2022-08-19T10:50:19;27.40;47.90
7254;DHT22;4060;49.186;9.226;2022-08-19T10:53:09;27.40;47.90
7254;DHT22;4060;49.186;9.226;2022-08-19T10:55:38;27.40;47.80
7254;DHT22;4060;49.186;9.226;2022-08-19T10:58:24;27.40;47.80
7254;DHT22;4060;49.186;9.226;2022-08-19T11:00:57;27.40;47.80
7254;DHT22;4060;49.186;9.226;2022-08-19T11:03:27;27.40;47.80
7254;DHT22;4060;49.186;9.226;2022-08-19T11:06:01;27.40;47.70
7254;DHT22;4060;49.186;9.226;2022-08-19T11:08:32;27.40;47.70
7254;DHT22;4060;49.186;9.226;2022-08-19T11:11:03;27.40;47.70
7254;DHT22;4060;49.186;9.226;2022-08-19T11:13:34;27.50;47.80
7254;DHT22;4060;49.186;9.226;2022-08-19T11:16:10;27.50;47.70
7254;DHT22;4060;49.186;9.226;2022-08-19T11:18:43;27.50;47.60
7254;DHT22;4060;49.186;9.226;2022-08-19T11:21:14;27.50;47.60
7254;DHT22;4060;49.186;9.226;2022-08-19T11:23:47;27.50;47.50
7254;DHT22;4060;49.186;9.226;2022-08-19T11:26:19;27.50;47.40
7254;DHT22;4060;49.186;9.226;2022-08-19T11:28:50;27.50;47.30
7254;DHT22;4060;49.186;9.226;2022-08-19T11:31:25;27.60;47.40
7254;DHT22;4060;49.186;9.226;2022-08-19T11:33:56;27.50;47.30
7254;DHT22;4060;49.186;9.226;2022-08-19T11:36:27;27.50;47.10
7254;DHT22;4060;49.186;9.226;2022-08-19T11:38:56;27.60;47.10
7254;DHT22;4060;49.186;9.226;2022-08-19T11:41:26;27.60;47.10
7254;DHT22;4060;49.186;9.226;2022-08-19T11:43:56;27.60;47.00
7254;DHT22;4060;49.186;9.226;2022-08-19T11:46:30;27.60;46.90
7254;DHT22;4060;49.186;9.226;2022-08-19T11:49:01;27.60;46.90
7254;DHT22;4060;49.186;9.226;2022-08-19T11:51:32;27.60;46.80
7254;DHT22;4060;49.186;9.226;2022-08-19T11:54:03;27.60;46.70
7254;DHT22;4060;49.186;9.226;2022-08-19T11:56:35;27.60;46.60
7254;DHT22;4060;49.186;9.226;2022-08-19T11:59:05;27.60;46.60
7254;DHT22;4060;49.186;9.226;2022-08-19T12:01:38;27.60;46.60
7254;DHT22;4060;49.186;9.226;2022-08-19T12:04:10;27.60;46.50
7254;DHT22;4060;49.186;9.226;2022-08-19T12:06:41;27.60;46.40
7254;DHT22;4060;49.186;9.226;2022-08-19T12:09:11;27.70;46.40
7254;DHT22;4060;49.186;9.226;2022-08-19T12:11:42;27.60;46.30
7254;DHT22;4060;49.186;9.226;2022-08-19T12:14:13;27.60;46.20
7254;DHT22;4060;49.186;9.226;2022-08-19T12:16:45;27.70;46.20
7254;DHT22;4060;49.186;9.226;2022-08-19T12:19:14;27.70;46.10
7254;DHT22;4060;49.186;9.226;2022-08-19T12:21:43;27.60;45.90
7254;DHT22;4060;49.186;9.226;2022-08-19T12:24:12;27.60;45.80
7254;DHT22;4060;49.186;9.226;2022-08-19T12:26:42;27.60;45.70
7254;DHT22;4060;49.186;9.226;2022-08-19T12:29:11;27.70;45.80
7254;DHT22;4060;49.186;9.226;2022-08-19T12:31:40;27.70;45.60
7254;DHT22;4060;49.186;9.226;2022-08-19T12:34:12;27.70;45.60
7254;DHT22;4060;49.186;9.226;2022-08-19T12:36:41;27.70;45.50
7254;DHT22;4060;49.186;9.226;2022-08-19T12:39:11;27.70;45.40
7254;DHT22;4060;49.186;9.226;2022-08-19T12:41:40;27.70;45.30
7254;DHT22;4060;49.186;9.226;2022-08-19T12:44:10;27.70;45.30
7254;DHT22;4060;49.186;9.226;2022-08-19T12:46:40;27.80;45.30
7254;DHT22;4060;49.186;9.226;2022-08-19T12:49:11;27.80;45.30
7254;DHT22;4060;49.186;9.226;2022-08-19T12:51:41;27.80;45.20
7254;DHT22;4060;49.186;9.226;2022-08-19T12:54:11;27.80;45.20
7254;DHT22;4060;49.186;9.226;2022-08-19T12:56:41;27.90;45.20
7254;DHT22;4060;49.186;9.226;2022-08-19T12:59:11;27.90;45.10
7254;DHT22;4060;49.186;9.226;2022-08-19T13:01:43;27.90;45.10
7254;DHT22;4060;49.186;9.226;2022-08-19T13:04:14;27.90;45.00
7254;DHT22;4060;49.186;9.226;2022-08-19T13:06:44;27.90;44.90
7254;DHT22;4060;49.186;9.226;2022-08-19T13:09:14;27.90;44.80
7254;DHT22;4060;49.186;9.226;2022-08-19T13:11:43;28.00;44.80
7254;DHT22;4060;49.186;9.226;2022-08-19T13:14:12;28.00;44.70
7254;DHT22;4060;49.186;9.226;2022-08-19T13:16:43;28.00;44.60
7254;DHT22;4060;49.186;9.226;2022-08-19T13:19:16;28.00;44.70
7254;DHT22;4060;49.186;9.226;2022-08-19T13:21:50;28.00;44.70
7254;DHT22;4060;49.186;9.226;2022-08-19T13:24:20;28.00;44.60
7254;DHT22;4060;49.186;9.226;2022-08-19T13:26:50;28.00;44.50
7254;DHT22;4060;49.186;9.226;2022-08-19T13:29:20;28.00;44.50
7254;DHT22;4060;49.186;9.226;2022-08-19T13:32:06;28.00;44.50
7254;DHT22;4060;49.186;9.226;2022-08-19T13:34:55;28.10;44.50
7254;DHT22;4060;49.186;9.226;2022-08-19T13:37:25;28.10;44.40
7254;DHT22;4060;49.186;9.226;2022-08-19T13:40:09;28.10;44.30
7254;DHT22;4060;49.186;9.226;2022-08-19T13:42:42;28.10;44.20
7254;DHT22;4060;49.186;9.226;2022-08-19T13:45:15;28.10;44.10
7254;DHT22;4060;49.186;9.226;2022-08-19T13:47:47;28.10;44.60
7254;DHT22;4060;49.186;9.226;2022-08-19T13:50:21;28.10;44.00
7254;DHT22;4060;49.186;9.226;2022-08-19T13:52:52;28.10;44.00
7254;DHT22;4060;49.186;9.226;2022-08-19T13:55:23;28.10;43.90
7254;DHT22;4060;49.186;9.226;2022-08-19T13:57:55;28.10;43.90
7254;DHT22;4060;49.186;9.226;2022-08-19T14:00:26;28.10;44.00
7254;DHT22;4060;49.186;9.226;2022-08-19T14:02:56;28.20;44.10
7254;DHT22;4060;49.186;9.226;2022-08-19T14:05:29;28.20;44.00
7254;DHT22;4060;49.186;9.226;2022-08-19T14:07:59;28.20;43.90
7254;DHT22;4060;49.186;9.226;2022-08-19T14:10:29;28.20;43.90
7254;DHT22;4060;49.186;9.226;2022-08-19T14:13:01;28.20;43.90
7254;DHT22;4060;49.186;9.226;2022-08-19T14:15:32;28.20;43.80
7254;DHT22;4060;49.186;9.226;2022-08-19T14:18:02;28.20;43.80
7254;DHT22;4060;49.186;9.226;2022-08-19T14:20:34;28.20;43.80
7254;DHT22;4060;49.186;9.226;2022-08-19T14:23:04;28.20;43.80
7254;DHT22;4060;49.186;9.226;2022-08-19T14:25:34;28.20;43.80
7254;DHT22;4060;49.186;9.226;2022-08-19T14:28:04;28.20;43.70
7254;DHT22;4060;49.186;9.226;2022-08-19T14:30:36;28.20;43.80
7254;DHT22;4060;49.186;9.226;2022-08-19T14:33:06;28.20;43.90
7254;DHT22;4060;49.186;9.226;2022-08-19T14:35:37;28.20;44.00
7254;DHT22;4060;49.186;9.226;2022-08-19T14:38:17;28.20;44.10
7254;DHT22;4060;49.186;9.226;2022-08-19T14:40:46;28.20;44.30
7254;DHT22;4060;49.186;9.226;2022-08-19T14:43:16;28.20;44.40
7254;DHT22;4060;49.186;9.226;2022-08-19T14:45:47;28.20;44.60
7254;DHT22;4060;49.186;9.226;2022-08-19T14:48:16;28.20;44.80
7254;DHT22;4060;49.186;9.226;2022-08-19T14:50:50;28.20;45.00
7254;DHT22;4060;49.186;9.226;2022-08-19T14:53:20;28.20;45.10
7254;DHT22;4060;49.186;9.226;2022-08-19T14:55:50;28.20;45.20
7254;DHT22;4060;49.186;9.226;2022-08-19T14:58:19;28.20;45.40
7254;DHT22;4060;49.186;9.226;2022-08-19T15:00:49;28.20;45.60
7254;DHT22;4060;49.186;9.226;2022-08-19T15:03:19;28.20;45.80
7254;DHT22;4060;49.186;9.226;2022-08-19T15:05:52;28.20;46.00
7254;DHT22;4060;49.186;9.226;2022-08-19T15:08:23;28.20;46.30
7254;DHT22;4060;49.186;9.226;2022-08-19T15:10:54;28.20;46.40
7254;DHT22;4060;49.186;9.226;2022-08-19T15:13:24;28.20;46.50
7254;DHT22;4060;49.186;9.226;2022-08-19T15:15:55;28.20;46.60
7254;DHT22;4060;49.186;9.226;2022-08-19T15:18:24;28.20;47.20
7254;DHT22;4060;49.186;9.226;2022-08-19T15:20:56;28.20;46.70
7254;DHT22;4060;49.186;9.226;2022-08-19T15:23:25;28.20;46.70
7254;DHT22;4060;49.186;9.226;2022-08-19T15:25:55;28.20;46.70
7254;DHT22;4060;49.186;9.226;2022-08-19T15:28:26;28.20;46.70
7254;DHT22;4060;49.186;9.226;2022-08-19T15:30:55;28.20;46.70
7254;DHT22;4060;49.186;9.226;2022-08-19T15:33:25;28.20;46.70
7254;DHT22;4060;49.186;9.226;2022-08-19T15:35:56;28.20;46.60
7254;DHT22;4060;49.186;9.226;2022-08-19T15:38:26;28.20;47.10
7254;DHT22;4060;49.186;9.226;2022-08-19T15:40:55;28.20;46.50
7254;DHT22;4060;49.186;9.226;2022-08-19T15:43:47;28.20;46.50
7254;DHT22;4060;49.186;9.226;2022-08-19T15:46:17;28.20;46.50
7254;DHT22;4060;49.186;9.226;2022-08-19T15:48:48;28.20;46.40
7254;DHT22;4060;49.186;9.226;2022-08-19T15:51:19;28.20;46.40
7254;DHT22;4060;49.186;9.226;2022-08-19T15:53:50;28.20;46.30
7254;DHT22;4060;49.186;9.226;2022-08-19T15:56:20;28.20;46.20
7254;DHT22;4060;49.186;9.226;2022-08-19T15:58:49;28.20;46.20
7254;DHT22;4060;49.186;9.226;2022-08-19T16:01:35;28.20;46.20
7254;DHT22;4060;49.186;9.226;2022-08-19T16:04:21;28.20;46.10
7254;DHT22;4060;49.186;9.226;2022-08-19T16:07:09;28.20;46.10
7254;DHT22;4060;49.186;9.226;2022-08-19T16:09:38;28.20;46.10
7254;DHT22;4060;49.186;9.226;2022-08-19T16:12:08;28.20;46.10
7254;DHT22;4060;49.186;9.226;2022-08-19T16:14:38;28.20;46.00
7254;DHT22;4060;49.186;9.226;2022-08-19T16:17:07;28.20;46.10
7254;DHT22;4060;49.186;9.226;2022-08-19T16:19:38;28.20;46.00
7254;DHT22;4060;49.186;9.226;2022-08-19T16:22:10;28.20;46.00
7254;DHT22;4060;49.186;9.226;2022-08-19T16:24:40;28.20;46.00
7254;DHT22;4060;49.186;9.226;2022-08-19T16:27:10;28.20;46.00
7254;DHT22;4060;49.186;9.226;2022-08-19T16:29:40;28.20;45.90
7254;DHT22;4060;49.186;9.226;2022-08-19T16:32:11;28.20;45.90